CheckWX is a tool to help pilots better visualize weather data.  It is not intended as a substitute for an official pre-flight weather briefing.

16:44:47 UTC

KSKA TAF
Fairchild AFB Airport
Spokane, Washington, USA
TAF AMD KSKA 201631Z 2016/2117 18006KT 9999 BKN004 BKN075 QNH2994INS BECMG 2015/2016 20006KT 9999 NSW BKN006 600703 QNH3000INS BECMG 2018/2019 21012KT 9999 VCSH SCT009 OVC040 620409 QNH2996INS BECMG 2022/2024 18012KT 8000 -RA BR BKN006 OVC020 620159 QNH2991INS BECMG 2104/2105 18006KT 9999 NSW FEW005 OVC015 620159 QNH2990INS TX07/2020Z TN03/2016Z

Oct-20@
16:00 UTC

Oct-20 @ 16:00 UTC

Oct-21@
17:00 UTC

Oct-21 @ 17:00 UTC

TAF AMD KSKA 201631Z 2016/2117 18006KT 9999 BKN004 BKN075 QNH2994INS
Wind
  • 180° at 6 KTS
Cloud Levels
  • Broken at 400' AGL
  • Broken at 7,500' AGL

Oct-20@
15:00 UTC

Oct-20 @ 15:00 UTC

Oct-20@
18:00 UTC

Oct-20 @ 18:00 UTC

BECMG 2015/2016 20006KT 9999 NSW BKN006 600703 QNH3000INS

Becoming

Becoming Conditions expected by Sun, Oct 20, 2019 @ 16:00 UTC

Wind
  • 200° at 6 KTS
Conditions
No significant weather
Cloud Levels
  • Broken at 600' AGL
Icing

Oct-20@
18:00 UTC

Oct-20 @ 18:00 UTC

Oct-20@
22:00 UTC

Oct-20 @ 22:00 UTC

BECMG 2018/2019 21012KT 9999 VCSH SCT009 OVC040 620409 QNH2996INS

Becoming

Becoming Conditions expected by Sun, Oct 20, 2019 @ 19:00 UTC

Wind
  • 210° at 12 KTS
Cloud Levels
  • Scattered at 900' AGL
  • Overcast at 4,000' AGL
Icing
Light icing in cloud expected at 4,000' AGL extending to 13,000' AGL

Oct-20@
22:00 UTC

Oct-20 @ 22:00 UTC

Oct-21@
04:00 UTC

Oct-21 @ 04:00 UTC

BECMG 2022/2024 18012KT 8000 -RA BR BKN006 OVC020 620159 QNH2991INS

Becoming

Becoming Conditions expected by Mon, Oct 21, 2019 @ 00:00 UTC

Wind
  • 180° at 12 KTS
Conditions
Light Rain, Mist
Cloud Levels
  • Broken at 600' AGL
  • Overcast at 2,000' AGL
Icing
Light icing in cloud expected at 1,500' AGL extending to 10,500' AGL

Oct-21@
04:00 UTC

Oct-21 @ 04:00 UTC

Oct-21@
17:00 UTC

Oct-21 @ 17:00 UTC

BECMG 2104/2105 18006KT 9999 NSW FEW005 OVC015 620159 QNH2990INS TX07/2020Z TN03/2016Z

Becoming

Becoming Conditions expected by Mon, Oct 21, 2019 @ 05:00 UTC

Wind
  • 180° at 6 KTS
Conditions
No significant weather
Cloud Levels
  • Few at 500' AGL
  • Overcast at 1,500' AGL
Icing
Light icing in cloud expected at 1,500' AGL extending to 10,500' AGL